KVPS/VPS METAR and TAF weather

Enter ICAO airport designator
Station Type Date Time Source
KVPS METAR 2022/01/26 20:56 UTC NOAA

KVPS 262056Z AUTO 01014KT 10SM CLR 16/M01 A3013 RMK AO2 SLP210 T01611010 56014 $


Station Type Date Time Source
KVPS Decoded METAR 2022/01/26 20:56 UTC NOAA

Valparaiso / Eglin Air Force Base, FL, United States (KVPS) 30-29N 086-31W 29M
Jan 26, 2022 - 03:56 PM EST / 2022.01.26 2056 UTC
Wind: from the N (010 degrees) at 16 MPH (14 KT):0
Visibility: 10 mile(s):0
Sky conditions: clear
Temperature: 61.0 F (16.1 C)
Dew Point: 30.2 F (-1.0 C)
Relative Humidity: 31%
Pressure (altimeter): 30.13 in. Hg (1020 hPa)
Pressure tendency: 0.04 inches (1.4 hPa) lower than three hours ago
ob: KVPS 262056Z AUTO 01014KT 10SM CLR 16/M01 A3013 RMK AO2 SLP210 T01611010 56014
cycle: 21

Station Type Date Time Source
KVPS TAF 2022/01/26 18:17 UTC NOAA

TAF KVPS 261800Z 2618/2724 01012G18KT 9999 FEW025 SCT250 QNH3012INS
BECMG 2623/2624 02006KT 9999 SKC QNH3016INS
BECMG 2711/2712 04007KT 4800 BR FEW010 QNH3020INS
BECMG 2715/2716 06009KT 9999 NSW FEW250 QNH3022INS TX15/2620Z TN03/2712Z

Example: see airport list